Date,TemperatureHighF,TemperatureAvgF,TemperatureLowF,DewpointHighF,DewpointAvgF,DewpointLowF,HumidityHigh,HumidityAvg,HumidityLow,PressureMaxIn,PressureMinIn,WindSpeedMaxMPH,WindSpeedAvgMPH,GustSpeedMaxMPH,PrecipitationSumIn
2013-1-1,38.7,31.6,19.6,27.0,17.3,4.8,67,55,46,29.91,29.70,26,8,26,0.00
2013-1-2,33.6,22.1,17.6,17.7,8.0,3.1,66,54,50,30.08,29.85,17,4,17,0.00
2013-1-3,26.1,20.3,17.6,9.5,5.0,0.6,60,51,45,30.11,29.97,13,3,13,0.00
2013-1-4,39.2,29.8,20.8,23.6,17.8,9.1,71,61,53,29.97,29.79,18,5,18,0.00
2013-1-5,43.7,33.1,22.3,26.5,19.0,13.4,72,56,44,30.23,29.85,15,4,15,0.00
2013-1-6,45.3,32.2,22.6,30.7,23.3,-14.0,81,70,55,30.20,29.91,47,2,130,0.75
2013-1-7,43.3,30.9,19.9,34.4,21.3,12.4,90,69,44,30.35,29.94,13,2,13,0.00
2013-1-8,48.4,32.5,17.8,32.2,22.4,11.2,80,67,49,30.35,30.23,166,6,15,0.71
2013-1-9,46.4,35.9,21.9,34.7,28.2,18.3,89,74,55,30.35,30.00,18,4,18,0.00
2013-1-10,48.2,40.9,32.2,31.0,24.7,18.3,66,53,42,30.50,30.03,33,7,33,0.00
2013-1-11,38.5,32.7,24.4,34.8,25.2,17.3,91,74,60,30.50,30.17,6,1,6,0.20
2013-1-12,43.2,40.4,36.9,42.9,39.6,34.7,100,97,91,30.17,30.08,6,0,6,0.04
2013-1-13,54.0,47.0,40.8,54.0,46.6,40.8,100,98,94,30.11,29.97,15,3,15,0.63
2013-1-14,61.9,51.2,39.7,56.6,43.9,26.9,98,78,51,30.23,29.85,15,6,15,0.00
2013-1-15,41.4,36.8,32.7,30.2,26.1,22.4,75,65,56,30.29,30.17,9,1,9,0.04
2013-1-16,33.6,32.6,30.2,32.6,28.6,22.8,96,86,68,30.20,29.79,6,0,6,0.00
2013-1-17,42.8,35.4,30.2,37.2,28.9,17.7,97,79,58,30.06,29.82,15,4,15,0.35
2013-1-18,30.6,23.7,18.7,17.5,6.8,1.3,58,48,44,30.41,30.03,17,5,17,0.00
2013-1-19,47.5,37.7,19.2,31.7,22.6,3.5,67,55,43,30.35,29.88,24,8,24,0.00
2013-1-20,54.3,42.3,28.0,33.4,25.5,8.9,67,52,40,29.91,29.52,29,10,29,0.00
2013-1-21,28.6,24.8,19.6,16.6,8.9,2.1,78,52,44,30.06,29.76,16,3,16,0.00
2013-1-22,26.2,20.8,17.6,17.0,8.8,-0.6,83,61,43,30.06,29.73,22,6,22,0.00
2013-1-23,18.7,13.3,4.8,1.7,-3.1,-12.1,49,47,45,30.11,30.03,22,7,22,0.00
2013-1-24,21.6,10.4,-0.4,3.8,-6.9,-16.7,48,45,43,30.20,30.03,17,6,17,0.00
2013-1-25,25.3,16.3,7.3,5.9,-1.6,-9.6,61,44,42,30.26,30.03,13,4,13,0.00
2013-1-26,26.4,17.1,9.0,12.3,4.1,-2.0,73,57,44,30.20,29.97,18,5,18,0.00
2013-1-27,32.4,20.5,8.6,12.8,3.2,-6.7,61,47,42,30.44,30.20,15,5,15,0.00
2013-1-28,32.5,24.6,16.2,25.4,12.4,0.0,88,61,44,30.41,29.97,10,1,10,0.00
2013-1-29,34.7,31.1,26.8,32.5,29.1,24.6,95,92,88,30.14,29.97,6,0,6,0.24
2013-1-30,60.6,49.6,33.6,59.7,48.3,32.3,100,95,87,30.11,29.44,25,8,25,0.08
2013-1-31,61.0,48.7,30.7,59.4,38.0,11.4,95,69,42,29.58,28.99,34,13,34,0.63
2013-2-1,34.0,28.1,21.0,14.4,9.8,3.4,52,46,43,30.06,29.58,18,9,18,0.00
2013-2-2,32.0,24.3,16.0,12.4,6.3,-0.3,48,46,44,30.23,30.03,14,6,14,0.00
2013-2-3,30.0,24.8,19.0,21.1,16.6,9.0,79,71,51,30.03,29.70,9,1,9,0.00
2013-2-4,32.4,23.8,19.0,18.2,11.2,5.3,80,59,44,29.94,29.70,20,6,20,0.00
2013-2-5,26.4,23.6,20.7,19.0,13.9,9.0,80,66,60,30.00,29.88,6,0,6,0.00
2013-2-6,39.9,30.0,24.3,30.8,19.1,1.0,89,66,44,30.26,29.88,17,4,17,0.00
2013-2-7,33.3,25.2,16.7,13.7,7.4,1.3,55,46,44,30.50,30.26,9,1,9,0.00
2013-2-8,32.9,28.2,18.3,30.1,22.0,6.3,94,78,49,30.44,29.50,17,1,17,0.04
2013-2-9,25.2,19.9,14.2,20.0,14.4,3.5,93,80,62,30.17,29.47,25,11,25,0.00
2013-2-10,42.3,23.0,5.4,20.8,7.9,-5.2,62,53,40,30.35,30.17,13,3,13,0.24
2013-2-11,47.3,34.0,14.9,46.0,29.6,4.6,99,84,62,30.32,29.55,12,3,12,0.43
2013-2-12,44.2,38.7,32.7,42.2,29.3,21.7,99,70,55,29.88,29.58,22,7,22,0.00
2013-2-13,45.5,35.6,27.1,27.9,22.6,18.0,70,60,44,29.85,29.64,13,2,13,0.00
2013-2-14,47.3,36.4,29.1,26.0,22.7,18.3,78,59,39,29.97,28.55,10,2,10,0.00
2013-2-15,52.7,37.7,23.9,36.0,27.4,17.2,86,68,50,29.97,29.88,15,3,15,0.00
2013-2-16,37.2,33.7,29.5,32.6,27.6,18.0,89,79,61,29.91,29.64,13,2,13,0.00
2013-2-17,29.8,22.1,15.6,18.3,10.3,-0.6,82,61,45,29.67,29.38,28,12,28,0.00
2013-2-18,33.1,24.2,13.5,13.5,6.2,-2.2,49,46,44,30.00,29.67,26,10,26,0.00
2013-2-19,48.4,38.4,18.1,42.1,25.8,5.4,94,62,44,30.08,29.55,18,5,18,0.28
2013-2-20,41.2,31.7,25.3,39.6,19.6,8.1,95,63,44,29.76,29.52,22,10,22,0.00
2013-2-21,35.1,28.1,23.5,16.3,13.0,9.5,60,53,44,30.17,29.76,21,10,21,0.00
2013-2-22,43.3,31.9,21.2,27.2,19.1,12.9,71,59,46,30.35,30.17,12,2,12,0.00
2013-2-23,38.3,33.7,29.3,31.1,26.4,20.0,91,75,66,30.29,29.85,12,2,12,0.12
2013-2-24,35.6,34.0,32.2,34.9,33.1,30.9,98,96,91,29.85,29.64,13,4,13,0.75
2013-2-25,39.9,34.3,28.0,39.0,31.5,27.5,100,90,76,30.20,29.85,8,0,8,0.20
2013-2-26,45.0,37.7,32.7,39.4,29.4,23.3,93,73,55,30.29,30.08,8,1,8,0.00
2013-2-27,43.0,39.1,35.2,41.9,37.2,28.0,99,93,74,30.08,29.55,12,2,12,1.54
2013-2-28,48.7,38.0,32.5,46.1,36.2,29.8,100,93,78,29.61,29.50,8,0,8,0.00
2013-3-1,47.1,37.6,30.0,39.7,29.4,24.4,97,74,55,29.64,29.50,17,4,17,0.00
2013-3-2,41.7,37.1,33.8,27.4,25.6,24.0,69,63,56,29.64,29.58,12,4,12,0.00
2013-3-3,43.9,35.6,31.5,29.3,25.5,22.8,81,67,55,29.61,29.52,12,4,12,0.00
2013-3-4,42.3,34.0,27.5,27.3,22.2,18.7,79,62,53,29.73,29.55,20,9,20,0.00
2013-3-5,47.8,37.0,29.1,32.0,25.2,19.3,78,63,51,30.03,29.73,13,4,13,0.00
2013-3-6,41.2,36.5,33.6,37.2,32.5,27.8,92,85,72,30.03,29.97,13,4,13,0.12
2013-3-7,35.1,32.6,30.6,32.4,30.1,28.1,93,91,83,30.00,29.94,17,5,17,0.08
2013-3-8,37.2,32.5,29.8,34.8,30.3,25.9,96,92,68,30.08,29.88,15,2,15,0.00
2013-3-9,53.2,38.1,26.2,30.6,24.5,20.1,80,59,42,30.32,30.08,13,3,13,0.31
2013-3-10,50.5,36.2,22.8,38.5,27.8,19.1,92,73,51,30.38,30.26,9,1,9,0.00
2013-3-11,55.0,43.6,35.1,40.8,35.6,29.1,87,74,55,30.29,30.11,12,5,12,0.00
2013-3-12,57.0,50.3,43.0,54.4,48.1,39.7,99,92,76,30.11,29.70,28,6,28,0.43
2013-3-13,53.6,43.6,30.9,51.4,31.8,15.6,98,67,38,29.76,29.67,18,6,18,0.00
2013-3-14,36.3,30.5,23.0,22.8,14.9,4.9,69,53,43,29.82,29.70,21,8,21,0.00
2013-3-15,43.7,31.1,20.3,24.9,14.5,4.4,68,51,40,29.85,29.61,17,6,17,0.00
2013-3-16,41.9,34.7,27.1,24.9,18.5,14.0,70,53,42,29.82,29.67,12,3,12,0.00
2013-3-17,40.6,31.5,23.9,19.3,13.6,5.9,62,48,40,30.26,29.82,20,4,20,0.00
2013-3-18,39.2,28.7,16.2,19.7,10.8,-0.1,63,47,42,30.41,30.17,13,2,13,0.00
2013-3-19,37.6,33.0,28.9,35.3,29.6,19.5,96,88,63,30.17,29.55,14,3,14,0.51
2013-3-20,41.0,32.5,26.4,29.5,21.1,12.2,95,65,44,29.79,29.67,20,6,20,0.04
2013-3-21,38.1,31.0,24.6,24.9,21.6,15.9,78,68,57,29.79,29.58,9,1,9,0.00
2013-3-22,42.6,33.6,26.1,23.6,19.2,14.8,78,56,42,29.73,29.58,17,7,17,0.00
2013-3-23,44.6,35.7,28.2,24.2,19.5,16.3,69,52,40,29.79,29.64,25,9,25,0.00
2013-3-24,51.6,39.2,29.5,28.4,21.8,15.6,64,50,39,29.82,29.70,13,5,13,0.00
2013-3-25,46.0,37.1,29.7,34.2,27.1,21.4,76,67,56,29.73,29.47,10,2,10,0.00
2013-3-26,50.7,40.3,33.8,31.7,25.3,16.3,75,56,39,29.76,29.50,20,5,20,0.00
2013-3-27,56.3,41.2,25.3,31.0,23.9,16.1,71,52,37,29.85,29.70,17,5,17,0.00
2013-3-28,50.5,42.8,36.3,36.0,30.9,26.9,84,64,45,30.00,29.85,13,3,13,0.00
2013-3-29,60.6,47.1,35.2,37.7,30.3,23.9,78,54,37,30.03,29.94,15,4,15,0.00
2013-3-30,60.1,47.8,35.6,33.7,28.4,15.4,68,48,37,30.06,25.68,15,5,15,0.00
2013-3-31,61.0,44.5,27.9,40.7,28.6,16.3,82,56,36,30.08,29.70,22,5,22,0.00
2013-4-1,63.9,48.2,34.3,46.9,39.0,14.1,96,73,42,29.79,29.50,23,7,23,0.36
2013-4-2,44.8,34.5,28.2,21.9,15.3,10.4,55,45,40,29.94,29.79,25,8,25,0.12
2013-4-3,47.7,37.0,29.8,23.7,16.5,11.5,46,43,39,30.14,29.94,26,10,26,0.00
2013-4-4,57.9,41.3,27.5,31.8,20.6,10.4,61,44,37,30.29,30.03,15,6,15,0.00
2013-4-5,63.7,47.2,37.6,36.2,28.9,20.1,67,51,36,30.03,29.61,23,6,23,0.00
2013-4-6,50.5,39.5,29.5,26.5,19.2,10.2,57,44,39,30.29,29.85,17,6,17,0.00
2013-4-7,55.4,41.6,25.3,40.3,26.0,9.1,76,55,38,30.29,30.00,28,7,28,0.00
2013-4-8,70.3,55.4,43.3,46.4,41.2,36.3,91,62,34,30.06,29.94,18,3,45,0.00
2013-4-9,75.9,59.4,32.0,56.4,43.4,-4.0,93,59,34,30.06,25.74,20,4,20,0.00
2013-4-10,69.8,54.6,45.0,52.6,45.0,39.7,93,72,50,29.97,29.82,13,2,13,0.20
2013-4-11,57.9,48.8,40.6,51.4,42.0,27.5,96,79,48,30.08,29.79,9,2,9,0.00
2013-4-12,41.5,39.3,38.1,37.5,34.2,28.1,96,82,61,30.11,29.73,12,2,12,0.35
2013-4-13,57.4,45.2,36.1,45.3,36.5,32.6,97,75,46,29.91,29.70,13,4,13,0.04
2013-4-14,55.2,45.3,36.9,41.2,30.9,20.6,84,59,39,30.20,29.88,17,4,17,0.00
2013-4-15,61.0,45.5,30.4,36.5,30.3,22.6,80,57,39,30.35,30.17,12,3,12,0.00
2013-4-16,65.3,51.3,34.3,49.4,40.7,31.0,91,69,44,30.38,30.06,27,7,27,0.00
2013-4-17,70.3,59.5,44.8,50.9,41.6,32.4,82,54,33,30.29,30.06,18,6,18,0.00
2013-4-18,64.2,50.4,36.1,46.2,36.1,-56.0,93,62,36,30.38,30.11,23,6,23,0.00
2013-4-19,73.6,62.2,51.8,63.4,57.1,43.8,98,84,59,30.11,29.67,25,9,25,0.00
2013-4-20,63.9,54.5,44.4,62.8,42.9,23.5,97,69,39,30.20,29.61,23,7,23,0.68
2013-4-21,58.1,44.5,32.7,31.9,24.0,14.7,64,45,37,30.65,30.20,17,5,17,0.00
2013-4-22,58.3,43.7,30.9,36.7,29.5,24.7,85,60,37,30.68,30.53,13,2,13,0.00
2013-4-23,43.0,41.1,37.9,40.8,36.7,28.3,95,85,66,30.53,30.06,12,3,12,0.08
2013-4-24,76.3,53.6,41.0,51.4,44.8,39.6,97,76,32,30.06,29.79,16,7,48,0.00
2013-4-25,67.1,55.3,43.3,44.0,37.1,20.6,76,53,34,30.23,29.82,17,6,17,0.12
2013-4-26,66.7,50.2,33.6,40.2,32.7,20.1,78,53,34,30.38,30.23,13,2,13,0.00
2013-4-27,66.2,50.3,34.9,48.5,36.2,29.8,93,62,34,30.38,30.26,13,2,13,0.00
2013-4-28,70.7,54.0,36.0,46.8,35.5,26.8,91,54,33,30.32,30.20,17,4,17,0.00
2013-4-29,69.4,56.8,44.8,47.6,38.5,28.6,87,54,34,30.26,30.17,15,4,15,0.00
2013-4-30,72.7,56.6,39.9,41.9,33.2,23.2,69,43,33,30.32,30.23,12,2,12,0.00
2013-5-1,75.6,55.7,34.7,46.2,36.4,23.8,80,51,32,30.44,30.32,8,1,8,0.00
2013-5-2,81.7,57.9,40.8,51.6,41.6,33.1,91,59,32,30.44,30.29,13,1,13,0.00
2013-5-3,65.8,51.7,40.8,46.7,39.5,34.3,82,64,46,30.47,30.35,10,2,10,0.00
2013-5-4,66.7,50.8,36.0,48.7,36.6,25.3,93,63,34,30.35,30.26,9,1,9,0.00
2013-5-5,69.1,50.7,33.3,46.5,37.4,29.2,92,64,37,30.29,30.20,8,1,8,0.00
2013-5-6,75.4,57.4,42.8,50.6,44.3,38.3,87,65,38,30.26,30.11,13,3,13,0.00
2013-5-7,77.9,61.5,42.8,56.7,50.3,40.4,94,69,48,30.14,30.06,15,3,15,0.00
2013-5-8,71.2,62.8,55.0,64.9,58.6,52.0,97,87,67,30.14,30.03,17,3,17,0.04
2013-5-9,69.6,61.1,56.3,68.4,59.4,56.0,100,95,73,30.03,29.85,9,0,9,0.28
2013-5-10,81.9,67.3,55.4,67.8,56.0,50.3,100,72,37,29.94,29.88,12,2,12,0.08
2013-5-11,71.2,63.3,58.1,63.2,57.8,50.2,96,83,61,29.91,29.67,22,5,22,0.04
2013-5-12,73.8,61.9,47.5,64.0,51.8,30.5,98,73,39,29.79,29.55,20,3,20,0.04
2013-5-13,63.0,50.1,37.4,37.1,31.5,23.6,77,50,36,30.00,29.79,13,4,13,0.00
2013-5-14,61.0,49.3,36.1,37.2,31.2,26.5,75,51,37,30.03,29.94,13,3,13,0.00
2013-5-15,65.1,51.4,35.1,51.9,39.8,28.8,89,67,38,30.03,29.67,18,5,18,0.00
2013-5-16,84.2,67.6,32.0,53.1,48.1,29.1,93,55,31,29.76,29.61,18,5,18,0.00
2013-5-17,73.0,59.6,46.8,47.0,42.7,36.6,84,56,36,30.20,29.76,17,3,17,0.00
2013-5-18,75.0,59.0,42.1,55.3,43.7,38.5,93,61,36,30.26,30.20,17,3,17,0.00
2013-5-19,71.6,57.8,45.9,55.9,48.8,41.8,94,74,49,30.32,30.20,13,3,13,0.04
2013-5-20,84.9,69.6,56.3,69.1,61.3,54.6,100,79,46,30.20,29.88,13,3,13,0.04
2013-5-21,86.9,67.1,52.9,73.8,60.6,49.7,98,82,50,29.97,29.79,12,1,12,0.12
2013-5-22,74.7,61.8,51.3,66.3,58.4,50.2,98,89,71,30.00,29.82,13,2,13,0.00
2013-5-23,75.2,67.0,58.8,69.2,63.8,56.2,98,90,70,29.88,29.79,22,6,22,0.20
2013-5-24,69.8,62.9,49.8,68.1,61.9,48.9,100,96,89,29.79,29.64,13,3,13,0.55
2013-5-25,53.6,48.0,41.2,53.6,47.5,40.4,100,98,97,29.79,29.67,15,4,15,0.43
2013-5-26,61.3,49.5,40.3,43.9,40.3,35.7,97,73,51,30.08,29.70,22,7,22,0.00
2013-5-27,74.7,57.4,39.7,46.5,40.2,33.6,91,57,32,30.14,30.03,18,3,18,0.00
2013-5-28,77.2,60.0,42.3,52.8,44.8,38.3,91,61,34,30.20,30.11,13,2,13,0.00
2013-5-29,78.4,65.3,58.1,70.7,61.0,52.5,99,87,65,30.14,29.97,14,3,14,1.40
2013-5-30,89.8,75.6,63.0,78.0,66.6,62.4,100,77,45,30.06,29.97,14,2,14,0.08
2013-5-31,93.9,79.6,65.8,76.2,65.7,57.9,97,67,39,30.06,29.91,13,3,13,0.00
2013-6-1,91.0,77.8,64.2,69.3,63.5,57.3,92,64,40,29.97,29.85,15,5,15,0.00
2013-6-2,88.5,76.2,67.8,68.2,63.9,60.6,89,68,44,29.88,29.73,25,7,25,0.00
2013-6-3,77.4,68.4,60.4,71.3,64.9,58.7,98,89,68,29.82,29.73,13,2,13,0.91
2013-6-4,73.0,60.2,46.2,58.7,48.5,44.2,96,69,39,30.06,29.79,15,3,15,0.00
2013-6-5,75.6,61.6,48.0,56.2,47.7,42.9,94,64,38,30.14,30.06,12,2,12,0.00
2013-6-6,73.6,62.2,50.7,58.2,49.1,44.9,91,64,39,30.14,30.06,13,3,13,0.00
2013-6-7,61.3,57.4,54.5,61.1,56.4,52.0,100,96,80,30.06,29.76,6,0,6,3.65
2013-6-8,78.8,63.6,53.8,71.2,58.9,53.8,100,87,58,29.97,29.55,13,3,13,0.93
2013-6-9,81.3,67.8,55.6,62.2,56.7,53.6,97,71,43,30.14,29.97,13,2,13,0.00
2013-6-10,70.0,61.9,54.5,65.8,59.0,52.5,99,91,72,30.14,29.97,5,0,5,1.90
2013-6-11,69.8,60.9,57.9,69.5,60.6,57.8,100,99,94,29.97,29.52,8,0,8,1.65
2013-6-12,71.8,62.9,55.6,61.3,55.0,48.5,100,78,53,29.79,29.52,20,5,20,0.00
2013-6-13,63.3,56.0,50.5,60.7,54.1,48.6,100,93,80,29.79,29.61,8,0,8,0.51
2013-6-14,72.5,59.9,51.8,64.4,55.2,51.8,100,86,59,29.76,29.58,10,2,10,1.26
2013-6-15,79.7,66.5,54.9,54.6,50.2,43.4,91,60,34,29.94,29.76,13,2,13,0.00
2013-6-16,75.0,65.7,52.0,61.9,54.3,47.6,88,68,50,29.94,29.70,12,4,12,0.00
2013-6-17,86.9,71.3,61.0,65.8,60.2,53.0,94,71,42,29.88,29.76,20,3,20,0.08
2013-6-18,82.8,65.0,58.8,74.0,61.0,55.4,100,89,48,29.91,29.82,10,1,11,0.47
2013-6-19,76.5,64.8,55.4,68.2,56.0,49.7,100,77,46,30.11,29.88,8,1,8,0.00
2013-6-20,80.8,66.0,50.9,62.1,52.1,44.9,96,66,34,30.23,30.11,15,2,15,0.00
2013-6-21,84.6,70.9,58.1,64.3,57.5,51.1,79,63,46,30.23,30.17,12,3,12,0.00
2013-6-22,84.6,72.4,63.9,63.4,56.4,51.0,67,58,45,30.20,30.08,13,4,13,0.00
2013-6-23,89.2,76.0,64.4,70.8,63.2,54.7,80,66,46,30.14,30.00,16,4,16,0.00
2013-6-24,93.9,79.9,68.5,74.6,69.1,60.5,94,73,44,30.03,29.88,15,3,15,0.13
2013-6-25,91.8,77.1,66.4,78.3,68.2,64.7,100,78,45,29.94,29.73,15,3,15,0.04
2013-6-26,88.3,75.5,69.1,73.4,69.3,29.7,96,83,52,29.82,29.70,13,2,13,0.09
2013-6-27,72.1,67.7,65.1,70.6,66.9,64.8,100,97,92,29.82,29.73,6,0,6,0.00
2013-6-28,82.0,72.7,65.5,77.2,68.7,65.2,100,89,64,29.73,29.47,17,5,17,0.17
2013-6-29,82.8,74.8,70.3,72.6,68.1,63.6,99,81,56,29.70,29.50,15,6,15,0.00
2013-6-30,81.0,76.7,71.1,72.3,70.3,67.7,92,81,73,29.91,29.70,10,4,10,0.00
2013-7-1,83.3,74.6,70.7,78.1,71.9,68.6,99,92,68,30.06,29.91,17,4,17,0.09
2013-7-2,83.5,76.3,72.3,74.0,71.6,68.2,97,86,64,30.17,30.06,14,5,14,0.00
2013-7-3,88.9,77.9,71.4,73.0,70.4,68.7,95,79,55,30.20,30.11,15,4,15,0.00
2013-7-4,91.2,81.3,73.0,76.7,72.2,70.1,97,76,54,30.20,30.08,12,4,12,0.00
2013-7-5,93.7,83.0,73.8,75.5,71.2,68.0,89,70,45,30.14,30.03,14,4,14,0.00
2013-7-6,93.4,82.1,74.1,75.5,71.6,69.0,90,72,48,30.08,29.97,12,2,12,0.00
2013-7-7,94.3,78.5,70.9,76.7,73.0,66.1,99,85,54,30.00,29.91,17,1,17,0.78
2013-7-8,90.7,78.2,68.4,80.8,72.0,63.8,100,84,50,30.03,29.88,9,2,9,0.87
2013-7-9,78.3,70.7,66.9,74.4,68.4,65.3,100,93,70,30.08,30.03,8,0,8,0.00
2013-7-10,86.0,75.6,68.5,78.1,71.2,65.8,99,87,61,30.03,29.79,17,3,17,0.00
2013-7-11,80.4,74.9,70.2,76.7,72.5,67.7,99,93,81,29.91,29.76,9,1,9,0.24
2013-7-12,77.4,70.1,66.0,67.9,63.3,-11.0,96,80,65,30.17,29.91,12,1,12,0.00
2013-7-13,76.8,70.5,65.8,75.4,68.8,60.0,99,94,81,30.29,30.17,0,0,0,0.09
2013-7-14,91.0,80.2,72.5,81.3,73.0,68.6,100,81,55,30.29,30.17,10,2,10,0.00
2013-7-15,93.2,81.1,72.7,79.0,73.3,70.8,98,80,53,30.17,30.08,10,1,10,0.00
2013-7-16,93.9,80.9,68.7,76.5,70.7,67.8,98,74,44,30.14,30.08,8,0,8,0.00
2013-7-17,94.6,81.7,71.4,78.3,71.0,67.4,97,73,44,30.14,30.00,12,2,12,0.00
2013-7-18,96.3,84.4,74.7,77.4,71.6,68.5,88,68,44,30.00,29.91,9,2,10,0.00
2013-7-19,96.1,84.9,74.8,78.1,73.6,70.6,95,71,45,29.94,29.73,17,4,17,0.00
2013-7-20,93.6,82.0,73.6,77.1,73.3,67.0,89,76,50,29.79,29.64,15,3,15,0.00
2013-7-21,88.5,77.0,69.1,69.6,66.0,62.1,91,71,48,29.97,29.79,10,1,10,0.00
2013-7-22,87.1,75.3,66.4,73.4,67.4,64.4,97,78,51,29.97,29.85,12,1,12,0.00
2013-7-23,84.6,74.0,71.4,81.1,72.0,32.0,100,94,70,29.85,29.52,13,2,13,1.65
2013-7-24,83.5,75.0,68.7,81.1,69.2,57.7,100,84,57,29.91,29.55,12,2,12,0.00
2013-7-25,68.7,61.1,58.8,59.3,54.9,30.5,99,81,65,30.06,29.91,8,0,8,1.51
2013-7-26,70.7,63.7,59.5,70.5,63.6,59.3,100,100,98,30.03,29.94,12,2,12,0.57
2013-7-27,84.0,71.3,60.8,75.0,63.8,60.2,100,80,49,30.06,29.97,10,2,11,0.00
2013-7-28,87.1,73.9,65.1,73.5,66.8,61.2,97,80,52,30.00,29.91,13,1,13,0.00
2013-7-29,84.4,74.2,67.6,76.7,68.4,62.5,95,83,59,30.03,29.94,13,2,13,0.24
2013-7-30,83.3,70.9,60.4,65.6,59.8,55.7,94,71,45,30.08,30.03,12,2,12,0.00
2013-7-31,84.4,70.7,59.2,65.2,60.1,32.0,94,71,45,30.11,30.03,6,1,6,0.00
2013-8-1,81.1,69.5,61.5,69.9,61.5,57.4,97,77,52,30.03,29.85,13,3,13,0.00
2013-8-2,84.0,72.4,65.3,73.7,63.6,58.6,98,76,48,29.85,29.79,15,2,15,0.14
2013-8-3,79.7,70.3,64.0,64.0,61.6,58.3,93,75,57,29.85,29.76,10,2,11,0.00
2013-8-4,82.0,67.7,57.4,62.8,56.8,52.3,92,71,43,29.88,29.76,13,3,13,0.00
2013-8-5,77.7,64.9,55.0,56.1,50.5,44.5,89,63,34,30.03,29.88,13,3,13,0.00
2013-8-6,81.0,65.0,50.0,62.0,52.4,47.9,96,68,39,30.14,30.03,9,1,9,0.00
2013-8-7,80.8,67.0,53.8,66.0,54.6,48.5,97,68,33,30.17,30.08,15,3,15,0.00
2013-8-8,79.9,72.3,65.7,69.8,65.6,56.4,91,80,68,30.11,30.00,14,5,14,0.00
2013-8-9,75.4,73.1,70.7,75.4,71.7,69.2,100,96,89,30.03,29.76,17,4,17,1.80
2013-8-10,83.3,72.9,62.1,74.0,63.2,48.7,100,75,39,30.00,29.79,15,3,15,0.00
2013-8-11,80.1,66.8,53.2,61.8,54.6,48.5,93,67,46,30.08,30.00,10,1,11,0.00
2013-8-12,83.8,70.6,60.1,67.0,59.8,55.6,96,72,45,30.03,29.91,9,1,9,0.00
2013-8-13,75.6,67.8,63.1,70.1,63.6,59.6,97,87,68,29.91,29.67,8,1,8,0.00
2013-8-14,74.3,66.2,57.6,64.4,54.7,50.2,95,68,48,29.97,26.07,17,4,17,0.00
2013-8-15,77.4,64.3,52.2,59.8,53.3,49.5,94,71,40,30.11,29.97,12,2,12,0.00
2013-8-16,79.9,66.1,53.1,65.9,55.5,51.4,97,72,40,30.17,30.08,10,1,10,0.00
2013-8-17,82.6,68.1,54.5,68.8,57.6,52.5,97,72,45,30.26,30.17,6,0,6,0.00
2013-8-18,79.0,67.4,58.3,67.6,59.0,55.6,96,76,46,30.26,30.08,8,1,8,0.00
2013-8-19,81.5,69.3,58.8,68.1,60.3,56.8,94,75,48,30.08,29.94,10,1,10,0.00
2013-8-20,86.7,73.2,61.7,70.6,61.9,56.3,96,71,38,30.08,29.97,9,1,9,0.00
2013-8-21,88.3,73.9,60.6,74.1,63.6,59.3,98,74,44,30.11,30.03,8,1,8,0.00
2013-8-22,84.0,73.2,64.4,74.8,67.2,61.9,98,82,58,30.03,29.82,12,3,12,0.00
2013-8-23,81.9,72.0,61.0,68.7,61.5,54.4,95,72,46,30.08,29.82,9,1,9,0.00
2013-8-24,79.2,64.6,51.8,57.9,51.1,44.8,93,65,34,30.32,30.08,8,0,8,0.00
2013-8-25,83.8,67.3,51.6,69.4,53.6,46.7,98,67,33,30.35,30.17,10,2,10,0.00
2013-8-26,79.7,70.4,63.9,65.3,60.2,54.0,85,71,58,30.17,29.88,12,2,12,0.00
2013-8-27,83.5,72.1,66.7,79.3,68.5,63.3,100,89,64,29.88,29.82,6,0,6,0.38
2013-8-28,87.1,72.9,61.9,76.7,66.1,61.3,100,81,51,29.94,29.82,8,0,8,0.00
2013-8-29,67.6,64.7,60.6,67.6,63.4,58.9,100,96,91,30.06,29.94,6,0,6,0.00
2013-8-30,82.6,69.2,60.3,69.3,63.3,58.5,96,83,58,30.03,29.82,9,2,9,0.00
2013-8-31,79.5,73.8,68.5,73.0,70.2,66.6,97,89,75,29.82,29.79,10,3,11,0.00
2013-9-1,79.3,73.5,68.9,77.7,71.7,67.9,100,94,85,29.88,29.79,9,2,9,0.28
2013-9-2,78.8,73.7,68.5,77.9,71.8,68.2,100,94,80,29.85,29.70,14,3,14,1.13
2013-9-3,77.9,71.4,62.6,76.3,68.1,59.6,100,90,70,29.82,29.67,13,1,13,0.00
2013-9-4,81.1,67.8,57.6,65.7,57.8,54.3,97,74,46,29.91,29.79,12,2,12,0.00
2013-9-5,71.4,62.3,50.4,65.4,56.3,45.8,96,82,56,30.11,29.85,7,0,7,0.05
2013-9-6,68.9,55.6,43.5,57.4,45.2,40.4,96,72,37,30.23,30.08,9,1,9,0.00
2013-9-7,79.3,62.5,46.9,55.6,50.2,44.3,94,68,37,30.08,29.85,12,2,12,0.00
2013-9-8,77.9,65.5,48.7,62.8,52.3,38.9,89,64,38,30.08,29.73,17,3,17,0.00
2013-9-9,69.3,56.2,42.3,54.6,44.7,38.7,93,68,40,30.23,30.08,10,2,11,0.00
2013-9-10,75.6,66.8,56.3,70.7,61.6,48.5,94,83,74,30.14,30.03,14,4,14,0.05
2013-9-11,95.4,80.9,69.1,82.0,71.7,67.2,100,77,43,30.06,29.94,13,3,13,0.00
2013-9-12,87.1,76.4,69.1,74.8,69.1,66.1,96,79,55,29.97,29.67,20,5,20,0.43
2013-9-13,78.3,69.4,61.0,75.5,65.3,54.9,100,88,62,29.73,29.55,10,1,11,0.14
2013-9-14,69.3,60.4,53.2,56.2,52.4,49.3,91,76,59,30.03,29.73,10,2,10,0.00
2013-9-15,72.1,58.9,47.5,61.5,49.6,45.3,97,74,45,30.14,30.03,12,1,12,0.00
2013-9-16,68.0,57.7,48.6,63.4,51.6,36.8,94,81,63,30.23,30.00,8,0,8,0.00
2013-9-17,64.8,51.1,37.4,44.4,38.7,31.0,84,64,40,30.41,30.23,9,1,9,0.00
2013-9-18,74.8,55.8,39.2,61.2,44.4,37.3,97,70,36,30.32,30.14,10,1,10,0.00
2013-9-19,80.8,61.7,46.0,61.6,50.3,43.4,94,70,37,30.14,30.03,8,0,8,0.00
2013-9-20,81.9,63.1,47.3,66.8,52.2,45.4,97,72,33,30.06,29.97,8,1,8,0.00
2013-9-21,76.5,65.0,52.3,68.2,59.4,51.2,99,83,53,30.03,29.70,17,5,17,0.00
2013-9-22,72.1,64.3,49.8,68.2,57.2,42.5,99,79,50,29.82,29.61,15,5,15,0.66
2013-9-23,66.9,53.3,43.3,47.3,42.3,37.7,88,68,46,30.00,29.82,13,3,13,0.00
2013-9-24,69.3,53.3,40.5,47.8,42.5,37.5,92,69,40,30.00,29.79,13,3,13,0.00
2013-9-25,71.4,56.4,43.0,54.3,46.8,39.7,94,72,50,29.97,29.85,10,1,10,0.00
2013-9-26,67.8,57.6,50.7,51.4,48.2,45.0,90,72,51,30.08,29.97,8,0,8,0.00
2013-9-27,66.2,57.8,49.6,55.4,51.4,46.9,92,80,62,30.23,30.08,8,0,8,0.00
2013-9-28,76.6,57.5,44.6,65.6,50.0,43.5,99,79,49,30.29,30.23,7,0,7,0.00
2013-9-29,71.8,54.7,42.1,62.1,47.2,40.5,98,78,49,30.23,30.08,6,0,6,0.00
2013-9-30,70.9,56.7,48.6,60.6,49.5,45.2,98,79,45,30.11,29.94,6,0,6,0.00
2013-10-1,79.9,60.4,44.8,66.8,50.7,42.9,98,75,37,29.94,29.82,9,1,9,0.00
2013-10-2,81.5,65.2,52.0,66.9,56.2,50.5,98,76,48,29.94,29.82,15,2,15,0.00
2013-10-3,80.1,61.9,49.8,66.0,50.6,42.3,98,71,34,30.08,29.94,8,1,8,0.00
2013-10-4,63.1,55.6,49.6,59.0,53.0,46.6,98,91,77,30.06,30.00,6,0,6,0.94
2013-10-5,69.4,61.8,57.2,68.4,60.1,55.8,100,95,81,30.11,30.03,4,0,5,0.09
2013-10-6,59.9,58.3,56.5,58.6,57.5,56.2,100,97,88,30.17,30.08,4,0,3,0.57
2013-10-7,75.6,65.9,57.0,73.0,63.2,55.3,100,92,73,30.08,29.82,25,5,25,0.09
2013-10-8,68.5,56.7,45.5,55.4,46.6,39.9,93,71,40,30.35,29.88,14,2,14,0.00
2013-10-9,65.1,50.9,41.2,53.5,42.7,38.2,94,75,50,30.44,30.32,6,0,6,0.00
2013-10-10,66.0,53.4,43.5,57.7,49.1,40.7,97,86,69,30.32,30.14,6,0,6,0.00
2013-10-11,70.3,57.7,48.7,58.1,51.2,42.9,96,80,59,30.14,30.06,8,0,8,0.00
2013-10-12,65.7,55.1,48.7,61.2,52.0,44.1,97,89,74,30.35,30.11,8,0,8,0.00
2013-10-13,63.5,52.4,40.3,54.4,46.8,36.9,95,82,62,30.41,30.32,6,0,6,0.00
2013-10-14,66.0,48.7,35.4,55.4,40.5,33.9,97,76,40,30.38,30.23,7,0,7,0.00
2013-10-15,70.0,55.8,44.8,61.0,48.4,42.9,97,78,51,30.26,30.14,6,0,6,0.00
2013-10-16,61.3,53.9,44.2,60.1,51.0,42.0,99,90,80,30.14,29.91,6,0,6,0.00
2013-10-17,71.8,60.6,50.9,65.3,56.3,49.4,99,87,62,29.91,29.70,10,2,11,0.00
2013-10-18,69.8,60.8,45.7,63.1,50.6,38.5,98,72,43,29.91,29.61,18,4,18,0.00
2013-10-19,66.4,53.2,40.3,53.6,41.7,36.7,93,68,38,29.97,29.73,13,2,13,0.00
2013-10-20,64.6,53.4,39.7,48.2,39.8,26.5,93,63,36,30.03,29.67,16,4,16,0.00
2013-10-21,69.1,52.4,37.0,46.8,37.9,31.4,84,61,37,30.11,30.00,10,2,10,0.00
2013-10-22,70.2,52.6,37.6,56.7,42.9,34.5,93,71,43,30.00,29.67,13,2,13,0.00
2013-10-23,50.9,43.7,34.7,44.2,35.7,32.3,94,74,55,29.79,29.58,6,0,6,0.00
2013-10-24,54.9,45.4,35.8,36.7,30.1,20.7,80,57,38,29.88,29.64,17,3,17,0.00
2013-10-25,51.1,40.3,30.9,37.0,27.1,22.5,77,60,42,30.14,29.88,14,3,14,0.00
2013-10-26,56.3,43.6,28.6,38.0,28.7,22.8,88,59,37,30.14,29.85,20,4,20,0.00
2013-10-27,57.2,49.6,34.5,43.1,31.6,23.4,82,51,40,30.06,29.79,17,4,17,0.00
2013-10-28,62.1,43.8,29.8,42.4,29.7,23.1,88,60,39,30.32,30.06,17,3,17,0.00
2013-10-29,53.2,38.3,28.6,31.8,23.7,17.5,73,57,38,30.41,30.32,9,1,9,0.00
2013-10-30,57.7,41.2,28.6,43.3,32.9,19.4,84,73,54,30.35,30.14,12,1,12,0.00
2013-10-31,62.4,49.0,32.4,60.4,46.2,30.3,97,90,80,30.20,29.79,16,4,16,0.05
2013-11-1,69.6,64.3,59.7,63.1,56.9,52.0,98,78,63,29.79,29.47,29,10,29,0.14
2013-11-2,69.6,56.0,46.9,55.5,44.4,37.3,95,68,37,29.70,29.58,10,0,11,0.00
2013-11-3,52.0,42.9,32.2,43.6,30.1,13.7,78,61,43,30.38,29.70,10,3,11,0.00
2013-11-4,46.8,33.7,24.4,23.2,16.7,11.5,69,50,39,30.68,30.38,8,1,8,0.00
2013-11-5,53.8,37.3,23.0,33.5,24.9,14.8,82,63,40,30.68,30.50,8,1,8,0.00
2013-11-6,62.1,49.4,36.1,50.3,39.6,28.5,88,71,45,30.50,30.03,13,4,13,0.00
2013-11-7,67.8,54.6,37.4,60.9,50.1,31.8,96,85,63,30.03,29.67,18,6,18,0.28
2013-11-8,49.8,39.0,29.1,36.6,25.9,16.3,84,61,42,30.08,29.82,20,5,20,0.00
2013-11-9,45.5,37.0,25.7,30.1,23.5,19.0,78,59,43,30.20,30.00,17,2,17,0.00
2013-11-10,57.0,46.1,40.6,43.2,34.7,27.2,83,65,50,30.00,29.73,23,3,23,0.00
2013-11-11,54.1,45.9,36.7,32.4,27.7,23.0,58,49,38,30.08,29.88,33,6,33,0.00
2013-11-12,50.0,36.2,26.6,34.4,25.1,12.8,84,65,51,30.17,29.85,16,3,16,0.14
2013-11-13,39.0,28.6,18.3,19.6,13.4,8.9,73,54,42,30.26,30.14,16,3,16,0.00
2013-11-14,52.9,40.3,28.0,27.9,20.5,11.8,57,45,38,30.14,30.00,14,4,14,0.00
2013-11-15,63.5,47.4,35.1,36.0,25.5,14.8,67,43,36,30.17,30.08,14,3,14,0.00
2013-11-16,62.1,45.3,34.0,38.9,30.8,25.9,76,59,37,30.29,30.17,10,1,10,0.00
2013-11-17,59.2,47.4,32.5,58.4,43.0,26.3,98,85,69,30.29,29.79,9,0,9,0.14
2013-11-18,66.7,59.7,47.8,63.3,47.1,29.4,100,67,37,29.79,29.52,17,7,17,0.28
2013-11-19,48.0,40.6,31.5,29.7,20.7,13.0,49,45,40,30.26,29.64,20,8,20,0.00
2013-11-20,45.0,31.9,21.9,22.1,13.4,7.8,61,46,40,30.59,30.23,13,3,13,0.00
2013-11-21,49.1,33.3,18.5,28.4,19.3,10.2,78,58,39,30.62,30.35,10,1,10,0.00
2013-11-22,50.2,45.4,38.7,48.5,41.4,28.3,96,86,66,30.35,29.79,8,0,8,0.09
2013-11-23,48.6,40.9,28.6,47.5,27.3,15.1,96,60,39,29.88,29.76,23,8,23,0.00
2013-11-24,28.6,23.9,20.5,16.1,6.4,1.3,59,47,42,30.17,29.79,25,12,25,0.00
2013-11-25,34.9,25.4,15.1,17.3,6.5,-2.5,52,44,40,30.35,30.17,15,6,15,0.00
2013-11-26,41.7,36.9,32.7,35.0,21.8,16.1,86,55,44,30.29,29.97,14,3,14,0.19
2013-11-27,62.6,51.1,35.6,62.4,50.5,34.0,100,98,86,29.97,29.20,33,7,33,2.50
2013-11-28,36.9,30.2,22.6,35.1,16.1,5.3,94,57,43,30.41,29.47,22,8,22,0.00
2013-11-29,36.5,27.7,19.8,17.5,11.4,2.1,63,51,43,30.70,30.41,13,2,13,0.00
2013-11-30,35.1,24.6,12.2,19.4,10.7,0.3,71,56,46,30.76,30.38,12,1,12,0.00
2013-12-1,38.3,34.3,28.6,35.9,29.8,19.4,96,84,67,30.38,29.97,5,0,5,0.14
2013-12-2,41.4,37.1,33.1,41.4,36.7,32.6,100,98,96,29.97,29.88,7,0,7,0.00
2013-12-3,51.8,39.4,32.7,48.9,35.3,27.4,100,86,59,29.94,29.79,12,2,12,0.00
2013-12-4,50.4,35.2,26.6,35.9,27.7,22.8,93,76,51,30.17,29.94,9,1,9,0.00
2013-12-5,56.3,43.1,30.2,56.3,39.7,24.5,100,88,79,30.17,29.91,13,1,13,0.00
2013-12-6,57.4,49.8,35.8,56.8,48.5,34.0,100,95,91,30.08,29.82,12,3,12,0.47
2013-12-7,39.2,33.6,26.8,36.7,28.7,19.6,97,83,62,30.41,30.06,15,2,15,0.14
2013-12-8,31.5,27.3,20.1,24.9,18.4,14.9,84,69,58,30.56,30.41,8,0,8,0.00
2013-12-9,36.7,32.1,25.3,35.7,28.3,16.0,97,86,60,30.44,29.85,9,0,10,0.24
2013-12-10,33.8,30.8,22.5,33.1,30.2,21.3,99,98,96,30.00,29.76,6,0,6,0.00
2013-12-11,29.3,24.8,19.9,22.8,18.9,15.2,96,79,67,30.20,30.00,0,0,0,0.00
2013-12-12,27.3,19.6,9.3,15.0,6.8,-6.0,75,58,45,30.23,30.03,0,0,0,0.00
2013-12-13,31.1,22.4,10.9,13.8,9.1,-4.5,70,57,46,30.32,29.97,16,2,16,0.00
2013-12-14,22.1,15.6,11.7,16.4,4.9,-0.5,79,62,50,30.56,30.08,9,1,9,0.00
2013-12-15,35.6,28.3,22.1,33.8,24.9,16.9,93,87,80,30.08,29.38,13,1,15,0.14
2013-12-16,29.7,22.5,8.8,20.5,11.3,-2.1,84,63,45,30.17,29.73,0,0,0,0.05
2013-12-17,20.1,11.0,0.0,15.2,2.8,-10.3,81,69,61,30.23,29.88,0,0,0,0.00
2013-12-18,35.6,25.9,17.8,23.5,17.7,12.9,84,72,57,30.06,29.82,15,2,15,0.00
2013-12-19,45.5,33.1,21.9,26.9,21.2,14.3,74,62,46,30.08,29.94,17,3,17,0.09
2013-12-20,55.8,41.5,28.6,37.8,29.7,22.9,82,64,40,30.08,29.91,13,3,13,0.14
2013-12-21,60.4,50.8,40.3,50.1,42.5,33.2,89,74,60,29.97,29.85,13,4,13,0.00
2013-12-22,65.5,56.3,38.8,60.2,51.3,33.9,91,83,64,29.97,29.73,22,6,22,0.00
2013-12-23,39.6,36.3,34.3,39.3,35.3,33.0,99,96,90,30.06,29.91,9,0,9,0.71
2013-12-24,38.8,33.3,26.6,38.6,24.1,13.8,99,70,49,30.17,30.00,13,5,13,0.00
2013-12-25,26.6,20.3,15.8,13.8,4.2,-0.3,58,49,45,30.50,30.17,17,4,17,0.00
2013-12-26,33.6,25.8,15.8,26.1,17.5,2.9,79,71,56,30.47,30.06,13,1,13,0.00
2013-12-27,36.9,28.2,21.4,25.2,18.8,14.8,82,68,51,30.26,30.17,10,2,11,0.00
2013-12-28,48.7,35.1,22.1,30.6,22.0,14.1,75,60,42,30.20,29.97,15,3,15,0.00
2013-12-29,43.0,35.0,26.8,37.7,30.0,19.1,95,82,69,30.00,29.35,15,2,15,1.18
2013-12-30,39.4,32.2,19.4,38.0,24.2,5.8,97,74,50,30.11,29.50,18,5,18,0.00
2013-12-31,19.4,18.0,14.4,7.8,6.7,3.4,65,61,57,30.11,30.08,6,0,6,0.00
2014-1-1,29.7,22.0,19.2,12.6,8.1,4.3,61,55,44,30.32,30.08,17,1,17,0.00
2014-1-2,21.7,14.2,1.8,13.2,7.5,-4.1,77,74,60,30.29,29.76,13,4,13,0.00